Time;durP1;ratioP1;P1;durP2;ratioP2;P2;SDS_P1;SDS_P2;PMS_P1;PMS_P2;Temp;Humidity;BMP_temperature;BMP_pressure;BME280_temperature;BME280_humidity;BME280_pressure;Samples;Min_cycle;Max_cycle;Signal;HPM_P1;HPM_P2
2023/10/29 00:00:02;;;;;;;1.45;0.40;;;;;;;21.13;52.94;98972.53;5016541;28;20038;-65
2023/10/29 00:02:28;;;;;;;2.63;0.40;;;;;;;21.17;52.58;98970.97;5034220;28;20044;-64
2023/10/29 00:04:53;;;;;;;0.32;0.20;;;;;;;21.19;52.89;98971.53;5033291;28;20025;-65
2023/10/29 00:07:19;;;;;;;0.63;0.40;;;;;;;21.24;51.90;98971.66;5034266;28;20040;-65
2023/10/29 00:09:44;;;;;;;1.88;0.25;;;;;;;21.27;52.54;98971.16;5015868;28;20033;-65
2023/10/29 00:12:09;;;;;;;0.43;0.20;;;;;;;21.33;52.24;98966.63;5031927;28;20551;-65
2023/10/29 00:14:35;;;;;;;0.28;0.17;;;;;;;21.34;52.55;98971.00;5033114;28;20033;-64
2023/10/29 00:17:00;;;;;;;2.05;0.75;;;;;;;21.41;51.95;98961.59;5034426;28;20489;-64
2023/10/29 00:19:26;;;;;;;0.80;0.28;;;;;;;21.46;51.80;98978.06;5034249;28;20555;-65
2023/10/29 00:21:51;;;;;;;3.50;0.50;;;;;;;21.51;51.30;98973.75;5033313;28;20113;-64
2023/10/29 00:24:17;;;;;;;0.65;0.38;;;;;;;21.51;51.79;98974.59;5033141;28;20117;-65
2023/10/29 00:26:42;;;;;;;4.15;0.63;;;;;;;21.57;51.82;98984.53;5033430;28;20044;-65
2023/10/29 00:29:08;;;;;;;0.30;0.28;;;;;;;21.60;51.12;98969.56;5034032;28;20037;-66
2023/10/29 00:31:33;;;;;;;0.88;0.20;;;;;;;21.61;51.07;98968.50;5033088;28;20033;-65
2023/10/29 00:33:59;;;;;;;0.77;0.30;;;;;;;21.60;51.40;98966.84;5033021;28;20033;-65
2023/10/29 00:36:24;;;;;;;0.40;0.40;;;;;;;21.64;51.01;98968.00;5034373;28;20036;-66
2023/10/29 00:38:50;;;;;;;2.60;0.30;;;;;;;21.67;51.44;98945.69;5033037;28;20052;-64
2023/10/29 00:41:15;;;;;;;2.25;0.30;;;;;;;21.67;51.14;98948.41;5032781;28;20040;-65
2023/10/29 00:43:40;;;;;;;7.93;0.65;;;;;;;21.67;50.91;98951.97;5033389;28;20033;-65
2023/10/29 00:46:06;;;;;;;2.38;0.32;;;;;;;21.71;51.29;98947.69;5015934;28;20033;-65
2023/10/29 00:48:35;;;;;;;1.00;0.40;;;;;;;21.70;51.48;98940.59;5032235;28;20034;-65
2023/10/29 00:51:01;;;;;;;0.45;0.20;;;;;;;21.71;51.41;98946.88;5032257;28;20029;-64
2023/10/29 00:53:26;;;;;;;2.78;0.38;;;;;;;21.71;51.16;98952.31;5033528;28;20033;-66
2023/10/29 00:55:52;;;;;;;0.90;0.40;;;;;;;21.70;50.79;98945.22;5032693;28;20382;-65
2023/10/29 00:58:19;;;;;;;1.45;0.30;;;;;;;21.68;51.24;98942.75;5033290;28;20036;-65
2023/10/29 01:00:45;;;;;;;1.48;0.60;;;;;;;21.68;51.15;98948.19;5032846;28;20149;-64
2023/10/29 01:03:11;;;;;;;5.22;0.98;;;;;;;21.66;51.20;98961.25;5032678;28;20053;-65
2023/10/29 01:05:40;;;;;;;1.73;0.30;;;;;;;21.62;50.52;98964.69;5032432;28;20031;-65
2023/10/29 01:08:05;;;;;;;1.95;0.40;;;;;;;21.60;51.35;98973.13;5033538;28;20444;-65
2023/10/29 01:10:34;;;;;;;0.95;0.63;;;;;;;21.54;50.34;98973.28;5032836;28;20030;-65
2023/10/29 01:13:00;;;;;;;0.63;0.50;;;;;;;21.48;51.48;98970.47;5033826;28;20523;-64
2023/10/29 01:15:25;;;;;;;3.70;0.50;;;;;;;21.44;51.25;98982.06;5015957;28;20056;-65
2023/10/29 01:17:50;;;;;;;3.15;1.20;;;;;;;21.35;51.05;98945.44;5032827;28;20108;-64
2023/10/29 01:20:16;;;;;;;7.07;0.50;;;;;;;21.21;51.77;98942.19;5033193;28;20029;-65
2023/10/29 01:22:41;;;;;;;3.45;0.30;;;;;;;21.11;51.95;98930.25;5032301;28;20109;-65
2023/10/29 01:25:09;;;;;;;5.10;0.50;;;;;;;21.00;51.29;98931.91;5031970;28;20408;-64
2023/10/29 01:27:35;;;;;;;1.50;0.45;;;;;;;20.91;51.86;98900.72;5032092;28;20033;-65
2023/10/29 01:30:01;;;;;;;1.02;0.73;;;;;;;20.85;52.20;98888.09;5032156;28;20044;-65
2023/10/29 01:32:26;;;;;;;1.70;0.50;;;;;;;20.77;52.03;98897.44;5031890;28;20017;-64
2023/10/29 01:34:52;;;;;;;0.45;0.45;;;;;;;20.71;52.33;98897.59;5033138;28;20044;-64
2023/10/29 01:37:17;;;;;;;3.28;0.50;;;;;;;20.66;52.02;98889.34;5033030;28;20025;-64
2023/10/29 01:39:43;;;;;;;1.17;0.43;;;;;;;20.59;52.81;98869.59;5032961;28;20033;-65
2023/10/29 01:42:08;;;;;;;3.25;0.30;;;;;;;20.60;52.68;98891.13;5031963;28;20053;-64
2023/10/29 01:44:34;;;;;;;1.08;0.47;;;;;;;20.60;52.50;98863.09;5031911;28;20075;-64
2023/10/29 01:46:59;;;;;;;3.83;0.43;;;;;;;20.56;52.38;98867.38;5033304;28;20104;-65
2023/10/29 01:49:24;;;;;;;2.85;0.80;;;;;;;20.58;52.19;98876.09;5032933;28;20033;-64
2023/10/29 01:51:50;;;;;;;2.05;1.00;;;;;;;20.54;52.62;98864.91;5032946;28;20021;-65
2023/10/29 01:54:16;;;;;;;1.58;0.32;;;;;;;20.56;52.53;98862.75;5031718;28;20465;-64
2023/10/29 01:56:42;;;;;;;1.52;0.38;;;;;;;20.56;52.00;98868.19;5032905;28;20501;-64
2023/10/29 01:59:07;;;;;;;0.52;0.30;;;;;;;20.67;51.83;98864.59;5031895;28;20029;-64
2023/10/29 02:01:33;;;;;;;1.02;0.22;;;;;;;20.71;52.54;98865.78;5032609;28;20074;-65
2023/10/29 02:03:58;;;;;;;1.75;0.30;;;;;;;20.74;52.42;98869.91;5031100;28;20080;-64
2023/10/29 02:06:23;;;;;;;0.38;0.20;;;;;;;20.77;51.88;98880.31;5014703;28;20064;-64
2023/10/29 02:08:49;;;;;;;5.45;0.55;;;;;;;20.81;51.83;98881.47;5031102;28;20032;-65
2023/10/29 02:11:14;;;;;;;0.43;0.30;;;;;;;20.83;51.35;98868.44;5031338;28;20021;-64
2023/10/29 02:13:40;;;;;;;0.40;0.40;;;;;;;20.84;51.68;98876.38;5031069;28;20112;-65
2023/10/29 02:16:05;;;;;;;0.68;0.32;;;;;;;20.86;52.31;98885.13;5031053;28;20032;-64
2023/10/29 02:18:30;;;;;;;0.70;0.47;;;;;;;20.89;51.71;98878.34;5032573;28;20068;-64
2023/10/29 02:20:56;;;;;;;3.78;0.55;;;;;;;20.92;51.42;98883.31;5007095;28;20047;-64
2023/10/29 02:23:21;;;;;;;4.90;0.50;;;;;;;20.95;51.28;98866.50;5014360;28;20037;-64
2023/10/29 02:25:47;;;;;;;1.95;0.35;;;;;;;20.99;51.94;98867.69;5030961;28;20497;-65
2023/10/29 02:28:12;;;;;;;1.20;0.20;;;;;;;20.99;52.07;98873.13;5031043;28;20033;-65
2023/10/29 02:30:37;;;;;;;0.68;0.40;;;;;;;21.01;51.25;98864.69;5014643;28;20033;-65
2023/10/29 02:33:03;;;;;;;5.32;0.43;;;;;;;21.04;51.57;98875.09;5033386;28;20030;-65
2023/10/29 02:35:28;;;;;;;2.13;0.50;;;;;;;21.01;51.29;98853.81;5035914;28;20026;-64
2023/10/29 02:37:54;;;;;;;0.57;0.50;;;;;;;21.02;51.69;98850.03;5034655;28;20485;-65
2023/10/29 02:40:19;;;;;;;2.97;0.30;;;;;;;21.05;51.42;98855.78;5034655;28;20029;-64
2023/10/29 02:42:45;;;;;;;1.73;0.60;;;;;;;21.04;51.72;98853.31;5034392;28;20109;-64
2023/10/29 02:45:10;;;;;;;0.57;0.40;;;;;;;21.03;51.31;98847.03;5034463;28;20037;-65
2023/10/29 02:47:36;;;;;;;1.83;0.93;;;;;;;21.05;51.17;98849.53;5034668;28;20036;-64
2023/10/29 02:50:01;;;;;;;1.00;0.50;;;;;;;21.04;51.46;98865.03;5034321;28;20040;-64
2023/10/29 02:52:27;;;;;;;0.80;0.40;;;;;;;21.02;51.82;98855.47;5017735;28;20029;-64
2023/10/29 02:54:52;;;;;;;1.63;0.25;;;;;;;21.05;51.76;98839.44;5035588;28;20481;-65
2023/10/29 02:57:17;;;;;;;1.83;0.60;;;;;;;21.03;52.09;98841.59;5034076;28;20551;-64
2023/10/29 02:59:43;;;;;;;1.45;0.55;;;;;;;21.06;51.99;98846.56;5034051;28;20042;-64
2023/10/29 03:02:08;;;;;;;1.25;0.43;;;;;;;21.07;51.30;98848.25;5035150;28;20095;-65
2023/10/29 03:04:33;;;;;;;0.65;0.30;;;;;;;21.07;52.17;98848.25;5014035;28;20041;-65
2023/10/29 03:06:59;;;;;;;2.10;0.30;;;;;;;21.07;51.67;98841.94;5015844;28;20033;-65
2023/10/29 03:09:24;;;;;;;0.20;0.20;;;;;;;21.08;51.95;98849.88;5015409;28;20038;-64
2023/10/29 03:11:49;;;;;;;0.57;0.30;;;;;;;21.07;51.27;98840.06;5014296;28;20076;-64
2023/10/29 03:14:15;;;;;;;0.40;0.40;;;;;;;21.10;51.71;98850.47;5014139;28;20458;-64
2023/10/29 03:16:40;;;;;;;1.27;0.28;;;;;;;21.08;51.70;98847.16;5014342;28;20045;-65
2023/10/29 03:19:05;;;;;;;7.85;0.80;;;;;;;21.09;51.58;98845.25;5014190;28;20481;-62
2023/10/29 03:21:31;;;;;;;1.65;0.47;;;;;;;21.12;50.99;98844.78;5015222;28;20536;-61
2023/10/29 03:23:56;;;;;;;1.65;0.20;;;;;;;21.12;51.90;98845.59;5013947;28;20394;-62
2023/10/29 03:26:21;;;;;;;1.60;0.40;;;;;;;21.14;51.37;98854.34;5013634;28;20390;-62
2023/10/29 03:28:47;;;;;;;1.15;0.50;;;;;;;21.19;51.18;98875.41;5014681;28;20065;-62
2023/10/29 03:31:13;;;;;;;0.80;0.30;;;;;;;21.18;51.62;98866.41;5014145;28;20121;-61
2023/10/29 03:33:39;;;;;;;0.77;0.45;;;;;;;21.18;50.84;98866.41;4998438;28;20042;-61
2023/10/29 03:36:05;;;;;;;2.05;0.30;;;;;;;21.19;51.52;98864.53;5030084;28;20033;-61
2023/10/29 03:38:30;;;;;;;1.75;0.70;;;;;;;21.19;50.73;98886.31;5015149;28;20034;-62
2023/10/29 03:40:56;;;;;;;0.20;0.20;;;;;;;21.19;51.39;98873.50;5014743;28;20034;-61
2023/10/29 03:43:21;;;;;;;0.77;0.50;;;;;;;21.21;50.94;98889.59;5029959;28;20038;-61
2023/10/29 03:45:46;;;;;;;4.95;0.30;;;;;;;21.19;51.01;98887.09;5013104;28;20068;-61
2023/10/29 03:48:14;;;;;;;0.20;0.10;;;;;;;21.22;51.55;98888.50;5013510;28;20030;-62
2023/10/29 03:50:39;;;;;;;0.22;0.00;;;;;;;21.21;51.40;98887.72;5014869;28;20042;-62
2023/10/29 03:53:05;;;;;;;5.53;0.30;;;;;;;21.20;51.17;98880.59;5031929;28;20075;-61
2023/10/29 03:55:30;;;;;;;0.52;0.28;;;;;;;21.22;50.58;98892.06;5016528;28;20403;-61
2023/10/29 03:57:55;;;;;;;1.88;0.20;;;;;;;21.21;51.02;98895.88;5034656;28;20501;-62
2023/10/29 04:00:22;;;;;;;2.28;0.68;;;;;;;21.17;50.65;98886.53;5016549;28;20381;-62
2023/10/29 04:02:48;;;;;;;3.83;0.20;;;;;;;21.19;50.74;98889.84;5032770;28;20037;-61
2023/10/29 04:05:17;;;;;;;2.92;0.30;;;;;;;21.22;51.36;98888.50;5034196;28;20029;-62
2023/10/29 04:07:42;;;;;;;0.28;0.28;;;;;;;21.19;50.25;98881.66;5034343;28;20193;-61
2023/10/29 04:10:08;;;;;;;3.20;0.65;;;;;;;21.19;50.77;98868.03;5016519;28;20152;-61
2023/10/29 04:12:33;;;;;;;2.65;0.30;;;;;;;21.18;50.17;98885.47;5034122;28;20026;-61
2023/10/29 04:14:59;;;;;;;1.42;0.25;;;;;;;21.17;50.50;98889.25;5033118;28;20037;-61
2023/10/29 04:17:24;;;;;;;1.17;0.22;;;;;;;21.17;50.19;98891.97;5016075;28;20036;-61
2023/10/29 04:19:50;;;;;;;1.98;0.17;;;;;;;21.15;50.09;98905.03;5032655;28;20080;-61
2023/10/29 04:22:15;;;;;;;0.52;0.20;;;;;;;21.18;50.92;98903.72;5032710;28;20087;-61
2023/10/29 04:24:41;;;;;;;2.33;0.22;;;;;;;21.17;50.95;98889.25;5016190;28;20033;-62
2023/10/29 04:27:06;;;;;;;4.95;0.38;;;;;;;21.16;50.55;98895.78;5033951;28;20029;-64
2023/10/29 04:29:32;;;;;;;2.95;0.30;;;;;;;21.17;50.46;98891.16;5032613;28;20029;-64
2023/10/29 04:31:57;;;;;;;1.13;0.50;;;;;;;21.17;50.14;98891.97;5032716;28;20506;-65
2023/10/29 04:34:22;;;;;;;1.77;0.40;;;;;;;21.16;50.92;98901.22;5032337;28;20036;-65
2023/10/29 04:36:51;;;;;;;0.82;0.35;;;;;;;21.18;50.30;98915.44;5032646;28;20516;-65
2023/10/29 04:39:19;;;;;;;1.77;0.40;;;;;;;21.19;49.83;98917.06;5032452;28;20531;-64
2023/10/29 04:41:46;;;;;;;0.57;0.22;;;;;;;21.20;49.81;98924.19;5032211;28;20412;-65
2023/10/29 04:44:11;;;;;;;0.60;0.30;;;;;;;21.18;50.58;98903.72;5032533;28;20029;-65
2023/10/29 04:46:37;;;;;;;0.73;0.20;;;;;;;21.17;50.21;98900.16;5032244;28;20033;-65
2023/10/29 04:49:02;;;;;;;2.75;0.22;;;;;;;21.21;50.65;98911.41;5032362;28;20117;-64
2023/10/29 04:51:29;;;;;;;1.95;0.55;;;;;;;21.20;50.00;98915.19;5032258;28;20032;-65
2023/10/29 04:53:55;;;;;;;1.35;0.30;;;;;;;21.23;50.30;98914.69;5032191;28;20034;-66
2023/10/29 04:56:20;;;;;;;1.98;0.52;;;;;;;21.22;50.26;98924.75;5031870;28;20056;-65
2023/10/29 04:58:45;;;;;;;1.08;0.20;;;;;;;21.21;50.09;98931.28;5015550;28;20034;-64
2023/10/29 05:01:11;;;;;;;1.40;0.20;;;;;;;21.23;49.98;98928.31;5031932;28;20041;-64
2023/10/29 05:03:36;;;;;;;1.05;0.30;;;;;;;21.21;49.83;98936.75;5031693;28;20037;-65
2023/10/29 05:06:01;;;;;;;1.20;0.20;;;;;;;21.24;49.61;98951.75;5032050;28;20111;-65
2023/10/29 05:08:27;;;;;;;0.65;0.17;;;;;;;21.21;49.62;98936.75;5031657;28;20492;-64
2023/10/29 05:10:53;;;;;;;1.77;0.32;;;;;;;21.22;49.59;98942.97;5033344;28;20497;-64
2023/10/29 05:13:18;;;;;;;1.05;0.35;;;;;;;21.19;50.34;98947.03;5032987;28;20030;-64
2023/10/29 05:15:44;;;;;;;2.05;0.28;;;;;;;21.19;49.35;98940.78;5033107;28;20440;-64
2023/10/29 05:18:09;;;;;;;0.25;0.25;;;;;;;21.14;49.52;98929.75;5033020;28;20530;-64
2023/10/29 05:20:37;;;;;;;1.77;0.40;;;;;;;21.21;49.98;98931.28;5031686;28;20060;-64
2023/10/29 05:23:02;;;;;;;1.42;0.40;;;;;;;21.24;49.92;98930.81;5031578;28;20403;-65
2023/10/29 05:25:27;;;;;;;0.57;0.30;;;;;;;21.23;49.20;98928.31;5031740;28;20488;-65
2023/10/29 05:27:54;;;;;;;4.63;0.30;;;;;;;21.22;49.62;98932.09;5031704;28;20515;-64
2023/10/29 05:30:20;;;;;;;1.45;0.32;;;;;;;21.18;49.30;98942.66;5013969;28;20041;-64
2023/10/29 05:32:45;;;;;;;3.25;0.22;;;;;;;21.17;50.07;98930.09;5032342;28;20030;-65
2023/10/29 05:35:11;;;;;;;1.85;0.30;;;;;;;21.18;49.69;98953.56;5033032;28;20034;-65
2023/10/29 05:37:36;;;;;;;0.95;0.55;;;;;;;21.14;49.29;98949.66;5032831;28;20087;-65
2023/10/29 05:40:07;;;;;;;1.40;0.30;;;;;;;21.14;50.18;98935.22;5014923;28;20404;-65
2023/10/29 05:42:33;;;;;;;3.97;0.32;;;;;;;21.16;49.81;98949.44;5032782;28;20523;-65
2023/10/29 05:44:58;;;;;;;3.30;0.40;;;;;;;21.16;49.64;98963.03;5031717;28;20038;-65
2023/10/29 05:47:23;;;;;;;1.23;0.40;;;;;;;21.15;49.68;98972.28;5031690;28;20029;-64
2023/10/29 05:49:49;;;;;;;1.48;0.75;;;;;;;21.12;50.09;98972.75;5015274;28;20057;-65
2023/10/29 05:52:14;;;;;;;1.85;0.35;;;;;;;21.12;48.99;98981.75;5033168;28;20026;-65
2023/10/29 05:54:40;;;;;;;2.25;0.82;;;;;;;21.10;49.18;98983.91;5031216;28;20033;-65
2023/10/29 05:57:05;;;;;;;2.55;0.28;;;;;;;21.09;49.75;98992.31;5031439;28;20037;-64
2023/10/29 05:59:32;;;;;;;3.35;0.57;;;;;;;21.07;49.74;98995.28;5015116;28;20088;-64
2023/10/29 06:01:57;;;;;;;1.50;0.40;;;;;;;21.05;49.49;98991.91;5033278;28;20444;-64
2023/10/29 06:04:23;;;;;;;2.17;0.38;;;;;;;21.00;49.33;98994.53;5033542;28;20033;-65
2023/10/29 06:06:48;;;;;;;1.88;0.35;;;;;;;21.01;49.48;99000.81;5032340;28;20378;-65
2023/10/29 06:09:14;;;;;;;3.50;0.57;;;;;;;20.96;49.89;99001.56;5034358;28;20026;-65
2023/10/29 06:11:42;;;;;;;2.90;0.30;;;;;;;20.97;49.76;99008.63;5036422;28;20025;-64
2023/10/29 06:14:08;;;;;;;1.60;0.38;;;;;;;20.98;49.06;99018.47;5034963;28;20041;-64
2023/10/29 06:16:34;;;;;;;3.35;0.40;;;;;;;20.98;48.96;99033.97;5035107;28;20148;-64
2023/10/29 06:19:02;;;;;;;1.50;0.40;;;;;;;20.97;49.42;99041.31;5018570;28;20030;-65
2023/10/29 06:21:28;;;;;;;4.50;0.57;;;;;;;20.99;49.31;99047.34;5036431;28;20408;-64
2023/10/29 06:23:54;;;;;;;1.80;0.43;;;;;;;20.98;49.13;99040.25;5036335;28;20064;-64
2023/10/29 06:26:19;;;;;;;3.65;0.70;;;;;;;21.00;48.80;99049.00;5018382;28;20037;-64
2023/10/29 06:28:44;;;;;;;4.03;0.98;;;;;;;20.98;49.29;99051.13;5034962;28;20042;-64
2023/10/29 06:31:10;;;;;;;1.75;0.45;;;;;;;20.99;49.24;99060.97;5034813;28;20053;-64
2023/10/29 06:33:39;;;;;;;3.92;0.80;;;;;;;21.00;48.84;99057.16;5034845;28;20068;-64
2023/10/29 06:36:05;;;;;;;3.60;0.95;;;;;;;20.99;48.56;99063.69;5018437;28;20493;-64
2023/10/29 06:38:30;;;;;;;2.42;0.52;;;;;;;20.99;49.00;99069.13;5035929;28;20057;-66
2023/10/29 06:40:55;;;;;;;6.32;0.80;;;;;;;21.00;48.52;99064.50;5017847;28;20075;-65
2023/10/29 06:43:20;;;;;;;3.08;0.50;;;;;;;20.98;48.37;99062.03;5035779;28;20485;-64
2023/10/29 06:45:46;;;;;;;4.22;0.50;;;;;;;20.98;48.60;99072.91;5034426;28;20068;-64
2023/10/29 06:48:11;;;;;;;1.27;0.45;;;;;;;20.98;48.84;99072.91;5034496;28;20033;-64
2023/10/29 06:50:36;;;;;;;3.35;0.57;;;;;;;20.99;48.19;99084.66;5034313;28;20033;-64
2023/10/29 06:53:02;;;;;;;3.50;0.80;;;;;;;20.97;48.60;99084.88;5034145;28;20048;-64
2023/10/29 06:55:27;;;;;;;3.72;0.63;;;;;;;20.99;48.88;99090.91;5034153;28;20033;-64
2023/10/29 06:57:53;;;;;;;5.05;0.73;;;;;;;21.00;48.65;99097.16;5017693;28;20199;-65
2023/10/29 07:00:18;;;;;;;3.10;0.80;;;;;;;20.98;48.16;99093.88;5035460;28;20033;-65
2023/10/29 07:02:44;;;;;;;5.63;0.68;;;;;;;20.96;47.80;99091.41;5033851;28;20544;-65
2023/10/29 07:05:10;;;;;;;3.50;1.00;;;;;;;20.95;48.76;99106.06;5034115;28;20044;-64
2023/10/29 07:07:35;;;;;;;3.17;1.58;;;;;;;20.93;48.14;99108.19;5035278;28;20534;-65
2023/10/29 07:10:04;;;;;;;2.70;0.68;;;;;;;20.89;48.38;99102.41;5035184;28;20036;-64
2023/10/29 07:12:29;;;;;;;11.95;0.77;;;;;;;20.91;48.69;99121.19;5035152;28;20566;-64
2023/10/29 07:14:56;;;;;;;2.70;0.98;;;;;;;20.86;48.08;99110.19;5017365;28;20030;-65
2023/10/29 07:17:21;;;;;;;2.83;0.47;;;;;;;20.85;47.80;99109.38;5035241;28;20033;-65
2023/10/29 07:19:47;;;;;;;4.63;1.10;;;;;;;20.84;48.34;99104.19;5016020;28;20497;-64
2023/10/29 07:22:13;;;;;;;2.08;0.40;;;;;;;20.84;47.99;99102.28;5033839;28;20087;-65
2023/10/29 07:24:38;;;;;;;7.15;0.45;;;;;;;20.86;47.92;99108.31;5034994;28;20029;-64
2023/10/29 07:27:04;;;;;;;4.22;0.60;;;;;;;20.89;48.33;99104.28;5034914;28;20057;-64
2023/10/29 07:29:29;;;;;;;5.03;0.95;;;;;;;20.94;48.61;99120.72;5033854;28;20080;-64
2023/10/29 07:31:54;;;;;;;4.30;0.32;;;;;;;21.02;47.85;99116.84;5017020;28;20025;-64
2023/10/29 07:34:20;;;;;;;2.65;0.60;;;;;;;21.12;48.06;99101.56;5034870;28;20068;-65
2023/10/29 07:36:45;;;;;;;2.95;0.40;;;;;;;21.31;47.96;99126.75;5033580;28;20037;-64
2023/10/29 07:39:10;;;;;;;3.03;0.75;;;;;;;21.45;47.50;99123.53;5033429;28;20386;-65
2023/10/29 07:41:36;;;;;;;4.32;0.80;;;;;;;21.54;47.34;99144.94;5016414;28;20037;-64
2023/10/29 07:44:01;;;;;;;1.38;0.40;;;;;;;21.47;48.16;99159.53;5033462;28;20485;-64
2023/10/29 07:46:27;;;;;;;3.90;1.15;;;;;;;21.44;47.90;99175.53;5033278;28;20040;-64
2023/10/29 07:48:52;;;;;;;4.72;0.60;;;;;;;21.39;48.50;99176.25;5034580;28;20511;-64
2023/10/29 07:51:17;;;;;;;4.35;0.40;;;;;;;21.37;48.12;99192.00;5034859;28;20434;-64
2023/10/29 07:53:43;;;;;;;4.32;0.52;;;;;;;21.31;48.75;99197.59;5034425;28;20030;-65
2023/10/29 07:56:10;;;;;;;2.08;0.35;;;;;;;21.29;48.46;99208.72;5034283;28;20087;-65
2023/10/29 07:58:36;;;;;;;5.78;0.60;;;;;;;21.31;48.09;99189.41;5034462;28;20109;-65
2023/10/29 08:01:02;;;;;;;3.70;0.60;;;;;;;21.25;47.68;99183.03;5033060;28;20033;-64
2023/10/29 08:03:27;;;;;;;5.05;0.98;;;;;;;21.21;47.61;99173.69;5016670;28;20050;-65
2023/10/29 08:05:53;;;;;;;4.43;0.60;;;;;;;21.17;48.23;99169.75;5032978;28;20087;-65
2023/10/29 08:08:19;;;;;;;1.75;0.65;;;;;;;21.14;47.95;99175.69;5016621;28;20034;-64
2023/10/29 08:10:44;;;;;;;4.32;0.43;;;;;;;21.13;48.11;99178.66;5033042;28;20485;-64
2023/10/29 08:13:10;;;;;;;1.55;0.30;;;;;;;21.10;47.78;99184.56;5033851;28;20029;-64
2023/10/29 08:15:37;;;;;;;1.60;0.57;;;;;;;21.09;48.53;99180.19;5016412;28;20108;-65
2023/10/29 08:18:02;;;;;;;3.08;0.80;;;;;;;21.05;48.27;99185.25;5032781;28;20080;-65
2023/10/29 08:20:27;;;;;;;2.13;0.43;;;;;;;21.03;48.47;99194.72;5032576;28;20033;-65
2023/10/29 08:22:53;;;;;;;1.52;0.50;;;;;;;20.98;48.37;99203.59;5033759;28;20120;-68
2023/10/29 08:25:18;;;;;;;2.30;0.32;;;;;;;20.97;48.52;99212.81;5033757;28;20060;-68
2023/10/29 08:27:43;;;;;;;5.43;0.90;;;;;;;20.98;48.10;99209.03;5033907;28;20494;-68
2023/10/29 08:30:10;;;;;;;3.95;1.00;;;;;;;20.98;48.40;99219.94;5032134;28;20040;-68
2023/10/29 08:32:35;;;;;;;3.42;0.50;;;;;;;20.95;48.10;99209.50;5032418;28;20030;-68
2023/10/29 08:35:01;;;;;;;3.22;0.95;;;;;;;20.96;47.80;99205.75;5015920;28;20057;-68
2023/10/29 08:37:27;;;;;;;2.58;0.77;;;;;;;21.01;48.02;99197.69;5032562;28;20045;-67
2023/10/29 08:39:56;;;;;;;3.38;0.90;;;;;;;21.02;47.74;99212.13;5032331;28;20057;-68
2023/10/29 08:42:21;;;;;;;4.85;1.30;;;;;;;21.01;48.36;99219.47;5032190;28;20120;-63
2023/10/29 08:44:47;;;;;;;2.03;0.63;;;;;;;21.02;47.69;99233.91;5015644;28;20121;-63
2023/10/29 08:47:12;;;;;;;4.07;0.70;;;;;;;20.98;47.91;99236.28;5015635;28;20156;-63
2023/10/29 08:49:37;;;;;;;4.20;1.42;;;;;;;21.03;48.49;99232.84;5033398;28;20156;-63
2023/10/29 08:52:03;;;;;;;4.68;0.75;;;;;;;21.09;47.60;99248.25;5015609;28;20078;-63
2023/10/29 08:54:28;;;;;;;4.97;0.52;;;;;;;21.16;47.60;99238.91;5032173;28;20116;-63
2023/10/29 08:56:54;;;;;;;4.38;0.68;;;;;;;21.36;47.49;99239.38;5033370;28;20520;-63
2023/10/29 08:59:20;;;;;;;2.67;0.68;;;;;;;21.66;46.50;99243.88;5033309;28;20088;-63
2023/10/29 09:01:46;;;;;;;4.97;1.10;;;;;;;21.98;47.15;99248.69;5015440;28;20444;-63
2023/10/29 09:04:11;;;;;;;2.28;0.90;;;;;;;22.37;46.16;99247.00;5031774;28;20048;-63
2023/10/29 09:06:37;;;;;;;2.35;0.73;;;;;;;22.40;46.46;99243.78;5015152;28;20045;-64
2023/10/29 09:09:04;;;;;;;7.43;1.02;;;;;;;22.92;45.13;99260.03;5015757;28;20025;-62
2023/10/29 09:11:29;;;;;;;3.25;0.47;;;;;;;22.98;45.34;99264.47;5015343;28;20091;-63
2023/10/29 09:13:55;;;;;;;2.55;0.55;;;;;;;22.88;46.06;99254.22;5033074;28;20491;-63
2023/10/29 09:16:20;;;;;;;4.18;0.88;;;;;;;22.76;45.59;99260.81;5031691;28;20505;-62
2023/10/29 09:18:46;;;;;;;4.72;0.88;;;;;;;22.71;46.23;99274.38;5031469;28;20091;-63
2023/10/29 09:21:11;;;;;;;1.35;0.38;;;;;;;22.62;46.51;99260.28;5031513;28;20101;-62
2023/10/29 09:23:37;;;;;;;2.58;0.60;;;;;;;22.55;46.17;99270.53;5015172;28;20393;-62
2023/10/29 09:26:03;;;;;;;5.68;0.65;;;;;;;22.48;45.62;99257.03;5031747;28;20018;-63
2023/10/29 09:28:28;;;;;;;0.98;0.40;;;;;;;22.46;46.75;99259.19;5032825;28;20136;-63
2023/10/29 09:30:54;;;;;;;2.20;0.38;;;;;;;22.41;46.26;99245.44;5031628;28;20026;-63
2023/10/29 09:33:19;;;;;;;1.60;0.68;;;;;;;22.42;45.90;99247.09;5032793;28;20018;-63
2023/10/29 09:35:45;;;;;;;3.85;0.80;;;;;;;22.54;46.05;99253.31;5032985;28;20025;-63
2023/10/29 09:38:10;;;;;;;2.65;0.57;;;;;;;22.78;45.99;99264.16;5014877;28;20021;-63
2023/10/29 09:40:36;;;;;;;2.80;0.85;;;;;;;23.06;45.26;99247.72;5031505;28;20359;-63
2023/10/29 09:43:03;;;;;;;1.83;0.30;;;;;;;23.33;45.04;99251.41;5033892;28;20021;-63
2023/10/29 09:45:29;;;;;;;6.63;0.60;;;;;;;23.27;45.22;99251.56;5035636;28;20021;-62
2023/10/29 09:47:59;;;;;;;0.57;0.52;;;;;;;23.38;45.16;99248.78;5019094;28;20032;-63
2023/10/29 09:50:25;;;;;;;2.20;0.60;;;;;;;24.70;43.43;99252.06;5035646;28;20036;-63
2023/10/29 09:52:52;;;;;;;2.97;0.93;;;;;;;25.16;42.79;99242.34;5035485;28;20428;-63
2023/10/29 09:55:20;;;;;;;1.73;0.70;;;;;;;24.90;43.52;99246.00;5036916;28;20139;-63
2023/10/29 09:57:46;;;;;;;3.17;0.40;;;;;;;24.70;43.74;99241.13;5019247;28;20428;-62
2023/10/29 10:00:12;;;;;;;1.73;0.52;;;;;;;24.59;43.70;99233.91;5035617;28;20417;-63
2023/10/29 10:02:55;;;;;;;5.13;1.08;;;;;;;24.50;43.56;99237.34;5018567;28;20068;-63
2023/10/29 10:05:21;;;;;;;2.38;0.38;;;;;;;24.33;44.37;99223.75;5018839;28;20056;-62
2023/10/29 10:07:47;;;;;;;3.70;0.65;;;;;;;24.16;44.24;99223.03;5035199;28;20085;-62
2023/10/29 10:10:13;;;;;;;3.45;0.55;;;;;;;24.03;44.00;99220.66;5036551;28;20105;-62
2023/10/29 10:12:46;;;;;;;3.22;0.57;;;;;;;23.92;44.42;99227.09;5036518;28;20032;-62
2023/10/29 10:15:13;;;;;;;2.13;0.28;;;;;;;23.81;44.17;99230.78;5036419;28;20105;-62
2023/10/29 10:17:38;;;;;;;3.30;1.13;;;;;;;23.65;44.59;99216.06;5035509;28;20030;-63
2023/10/29 10:20:10;;;;;;;2.55;1.33;;;;;;;23.53;44.82;99216.19;5018626;28;20489;-62
2023/10/29 10:22:36;;;;;;;4.13;0.43;;;;;;;23.45;44.41;99235.75;5036367;28;20049;-63
2023/10/29 10:25:01;;;;;;;0.95;0.40;;;;;;;23.37;44.84;99222.47;5036665;28;20041;-62
2023/10/29 10:27:27;;;;;;;0.75;0.35;;;;;;;23.35;44.80;99232.84;5035075;28;20440;-63
2023/10/29 10:29:53;;;;;;;3.15;0.40;;;;;;;23.35;45.04;99223.81;5035101;28;20181;-63
2023/10/29 10:32:22;;;;;;;4.97;0.47;;;;;;;23.31;44.58;99239.88;5018307;28;20489;-63
2023/10/29 10:34:51;;;;;;;5.30;0.52;;;;;;;23.24;44.79;99252.91;5035006;28;20065;-62
2023/10/29 10:37:17;;;;;;;2.75;0.68;;;;;;;23.15;45.06;99248.91;5034790;28;20029;-63
2023/10/29 10:39:42;;;;;;;1.30;0.73;;;;;;;23.10;45.12;99251.56;5035004;28;20037;-62
2023/10/29 10:42:07;;;;;;;0.88;0.40;;;;;;;23.02;44.57;99250.09;5027064;28;20038;-62
2023/10/29 10:44:35;;;;;;;1.00;0.50;;;;;;;22.93;44.32;99245.28;4998491;28;20077;-63
2023/10/29 10:47:03;;;;;;;3.92;0.55;;;;;;;22.83;44.78;99253.31;5015202;28;20030;-63
2023/10/29 10:49:31;;;;;;;2.40;0.65;;;;;;;22.71;45.08;99263.47;5020210;28;20084;-63
2023/10/29 10:51:58;;;;;;;5.38;0.57;;;;;;;22.63;44.45;99270.13;5032223;28;20034;-63
2023/10/29 10:54:25;;;;;;;2.00;0.45;;;;;;;22.55;45.24;99268.63;5035485;28;20033;-62
2023/10/29 10:56:52;;;;;;;0.47;0.22;;;;;;;22.47;45.26;99258.09;5034930;28;20076;-62
2023/10/29 10:59:18;;;;;;;3.03;0.38;;;;;;;22.42;44.67;99260.72;5035773;28;20043;-63
2023/10/29 11:01:43;;;;;;;1.90;0.60;;;;;;;22.38;45.20;99275.13;5017921;28;20037;-63
2023/10/29 11:04:10;;;;;;;2.65;0.22;;;;;;;22.39;45.18;99293.97;5035603;28;20053;-64
2023/10/29 11:06:37;;;;;;;5.18;0.70;;;;;;;22.36;45.20;99288.97;5036070;28;20030;-63
2023/10/29 11:09:03;;;;;;;4.82;0.77;;;;;;;22.35;44.66;99290.06;5017969;28;20571;-63
2023/10/29 11:11:38;;;;;;;3.10;0.50;;;;;;;22.31;45.93;99283.44;5034732;28;20038;-63
2023/10/29 11:14:11;;;;;;;3.53;0.63;;;;;;;22.26;45.89;99277.88;5018349;28;20039;-65
2023/10/29 11:16:46;;;;;;;;;;;;;;;22.19;45.95;99282.66;5036071;28;20036;-62
2023/10/29 11:19:33;;;;;;;3.42;0.60;;;;;;;22.18;45.25;99281.00;5034341;28;20012;-62
2023/10/29 11:22:17;;;;;;;4.55;1.25;;;;;;;22.25;46.35;99265.31;5034739;28;20092;-62
2023/10/29 11:24:43;;;;;;;4.80;0.70;;;;;;;22.31;45.85;99253.41;5034995;28;20037;-62
2023/10/29 11:27:47;;;;;;;2.63;0.60;;;;;;;22.39;46.01;99244.84;5035382;28;20073;-62